createdAt,value
2019-03-22T00:00:41.163Z,9.40
2019-03-22T00:03:13.230Z,9.34
2019-03-22T00:05:45.306Z,9.36
2019-03-22T00:08:17.431Z,9.33
2019-03-22T00:10:49.523Z,9.31
2019-03-22T00:13:21.676Z,9.27
2019-03-22T00:15:53.844Z,9.21
2019-03-22T00:18:26.004Z,9.18
2019-03-22T00:20:58.177Z,9.34
2019-03-22T00:23:30.306Z,9.30
2019-03-22T00:26:02.416Z,9.23
2019-03-22T00:28:34.560Z,9.20
2019-03-22T00:31:06.648Z,9.16
2019-03-22T00:33:38.828Z,9.10
2019-03-22T00:36:10.953Z,9.14
2019-03-22T00:38:43.057Z,9.19
2019-03-22T00:41:15.182Z,9.14
2019-03-22T00:43:47.296Z,9.06
2019-03-22T00:46:19.435Z,9.06
2019-03-22T00:48:51.497Z,9.03
2019-03-22T00:51:23.591Z,9.01
2019-03-22T00:53:55.695Z,8.93
2019-03-22T00:56:27.743Z,8.84
2019-03-22T00:58:59.831Z,8.83
2019-03-22T01:01:32.019Z,8.76
2019-03-22T01:04:04.159Z,8.74
2019-03-22T01:06:36.303Z,8.84
2019-03-22T01:09:08.984Z,8.76
2019-03-22T01:11:41.138Z,8.75
2019-03-22T01:14:13.282Z,8.80
2019-03-22T01:16:45.390Z,8.81
2019-03-22T01:19:17.540Z,8.86
2019-03-22T01:21:49.729Z,8.88
2019-03-22T01:24:21.782Z,8.83
2019-03-22T01:26:53.913Z,8.77
2019-03-22T01:29:26.032Z,8.77
2019-03-22T01:31:58.137Z,8.78
2019-03-22T01:34:30.258Z,8.79
2019-03-22T01:37:02.360Z,8.80
2019-03-22T01:39:34.477Z,8.68
2019-03-22T01:42:06.626Z,8.62
2019-03-22T01:44:38.763Z,8.59
2019-03-22T01:47:10.899Z,8.61
2019-03-22T01:49:43.016Z,8.49
2019-03-22T01:52:15.120Z,8.60
2019-03-22T01:54:47.124Z,8.57
2019-03-22T01:57:19.363Z,8.46
2019-03-22T01:59:51.477Z,8.39
2019-03-22T02:02:23.503Z,8.38
2019-03-22T02:04:55.667Z,8.28
2019-03-22T02:07:27.753Z,8.31
2019-03-22T02:09:59.905Z,8.27
2019-03-22T02:12:32.009Z,8.30
2019-03-22T02:15:05.692Z,8.21
2019-03-22T02:17:37.796Z,8.18
2019-03-22T02:20:10.837Z,8.16
2019-03-22T02:22:46.307Z,8.17
2019-03-22T02:25:18.628Z,8.09
2019-03-22T02:27:50.771Z,8.07
2019-03-22T02:30:22.846Z,8.05
2019-03-22T02:32:54.972Z,8.08
2019-03-22T02:35:29.321Z,8.06
2019-03-22T02:38:00.878Z,8.09
2019-03-22T02:40:32.975Z,8.06
2019-03-22T02:43:05.010Z,8.02
2019-03-22T02:45:37.100Z,7.91
2019-03-22T02:48:09.272Z,7.86
2019-03-22T02:50:41.409Z,7.92
2019-03-22T02:53:13.490Z,7.93
2019-03-22T02:55:45.647Z,7.92
2019-03-22T02:58:21.057Z,7.88
2019-03-22T03:00:51.597Z,7.96
2019-03-22T03:03:23.666Z,7.89
2019-03-22T03:05:55.730Z,7.82
2019-03-22T03:08:27.900Z,7.91
2019-03-22T03:10:59.972Z,7.89
2019-03-22T03:13:32.086Z,7.83
2019-03-22T03:16:04.217Z,7.83
2019-03-22T03:18:36.253Z,7.74
2019-03-22T03:21:08.400Z,7.79
2019-03-22T03:23:40.523Z,7.75
2019-03-22T03:26:12.684Z,7.72
2019-03-22T03:28:44.817Z,7.71
2019-03-22T03:31:16.925Z,7.79
2019-03-22T03:33:49.014Z,7.84
2019-03-22T03:36:21.053Z,7.81
2019-03-22T03:38:53.172Z,7.74
2019-03-22T03:41:25.315Z,7.71
2019-03-22T03:43:57.441Z,7.68
2019-03-22T03:46:29.557Z,7.63
2019-03-22T03:49:01.714Z,7.58
2019-03-22T03:51:33.774Z,7.52
2019-03-22T03:54:05.965Z,7.53
2019-03-22T03:56:38.011Z,7.57
2019-03-22T03:59:10.165Z,7.57
2019-03-22T04:01:42.261Z,7.60
2019-03-22T04:04:14.409Z,7.65
2019-03-22T04:06:46.546Z,7.53
2019-03-22T04:09:18.553Z,7.64
2019-03-22T04:11:50.664Z,7.60
2019-03-22T04:14:22.789Z,7.53
2019-03-22T04:16:54.885Z,7.51
2019-03-22T04:19:27.082Z,7.41
2019-03-22T04:21:59.189Z,7.28
2019-03-22T04:24:31.329Z,7.20
2019-03-22T04:27:03.398Z,7.19
2019-03-22T04:29:35.483Z,7.11
2019-03-22T04:32:07.573Z,7.06
2019-03-22T04:34:39.697Z,7.06
2019-03-22T04:37:11.809Z,7.03
2019-03-22T04:39:43.953Z,6.99
2019-03-22T04:42:16.109Z,6.96
2019-03-22T04:44:48.250Z,7.05
2019-03-22T04:47:22.625Z,7.06
2019-03-22T04:49:55.932Z,7.03
2019-03-22T04:52:29.062Z,7.03
2019-03-22T04:55:03.783Z,7.14
2019-03-22T04:57:37.178Z,7.19
2019-03-22T05:00:10.488Z,7.21
2019-03-22T05:02:45.221Z,7.17
2019-03-22T05:05:19.716Z,7.09
2019-03-22T05:07:53.917Z,7.12
2019-03-22T05:10:27.343Z,7.10
2019-03-22T05:13:02.337Z,7.14
2019-03-22T05:15:35.842Z,7.06
2019-03-22T05:18:08.447Z,7.13
2019-03-22T05:20:43.217Z,7.02
2019-03-22T05:23:17.447Z,7.06
2019-03-22T05:25:53.075Z,6.98
2019-03-22T05:28:26.225Z,7.00
2019-03-22T05:32:03.555Z,6.96
2019-03-22T05:34:35.652Z,6.92
2019-03-22T05:37:07.936Z,7.06
2019-03-22T05:39:40.036Z,7.08
2019-03-22T05:42:12.174Z,7.04
2019-03-22T05:44:44.284Z,7.02
2019-03-22T05:47:16.375Z,7.09
2019-03-22T05:49:48.514Z,7.09
2019-03-22T05:52:20.619Z,7.10
2019-03-22T05:54:52.715Z,7.12
2019-03-22T05:57:24.821Z,7.12
2019-03-22T05:59:56.970Z,7.12
2019-03-22T06:02:29.105Z,7.24
2019-03-22T06:05:01.209Z,7.28
2019-03-22T06:07:33.426Z,7.25
2019-03-22T06:10:06.336Z,7.31
2019-03-22T06:12:38.445Z,7.36
2019-03-22T06:15:11.070Z,7.47
2019-03-22T06:17:51.602Z,7.60
2019-03-22T06:20:17.043Z,7.69
2019-03-22T06:22:49.359Z,7.83
2019-03-22T06:25:21.445Z,7.98
2019-03-22T06:27:53.609Z,8.08
2019-03-22T06:30:25.776Z,8.21
2019-03-22T06:33:01.068Z,8.38
2019-03-22T06:35:33.253Z,8.50
2019-03-22T06:38:05.419Z,8.64
2019-03-22T06:40:37.605Z,8.75
2019-03-22T06:43:09.643Z,8.91
2019-03-22T06:45:41.797Z,9.09
2019-03-22T06:48:13.942Z,9.33
2019-03-22T06:50:46.117Z,9.56
2019-03-22T06:53:18.188Z,9.62
2019-03-22T06:55:50.211Z,9.87
2019-03-22T06:58:24.207Z,9.95
2019-03-22T07:00:56.065Z,10.08
2019-03-22T07:03:28.187Z,10.22
2019-03-22T07:06:00.255Z,10.47
2019-03-22T07:08:32.402Z,10.61
2019-03-22T07:11:04.538Z,10.88
2019-03-22T07:13:36.678Z,11.16
2019-03-22T07:16:08.923Z,11.30
2019-03-22T07:18:41.070Z,11.30
2019-03-22T07:21:13.225Z,11.42
2019-03-22T07:23:45.375Z,11.77
2019-03-22T07:26:17.489Z,12.15
2019-03-22T07:28:49.611Z,12.45
2019-03-22T07:31:21.805Z,12.76
2019-03-22T07:33:53.923Z,13.10
2019-03-22T07:36:26.074Z,13.39
2019-03-22T07:38:58.171Z,13.73
2019-03-22T07:41:30.258Z,14.23
2019-03-22T07:44:02.453Z,14.78
2019-03-22T07:46:34.602Z,15.05
2019-03-22T07:49:06.894Z,14.98
2019-03-22T07:51:39.074Z,15.14
2019-03-22T07:54:11.171Z,15.48
2019-03-22T07:56:43.313Z,15.63
2019-03-22T07:59:15.491Z,15.94
2019-03-22T08:01:47.657Z,16.31
2019-03-22T08:04:19.775Z,16.72
2019-03-22T08:06:51.911Z,16.64
2019-03-22T08:09:24.025Z,16.33
2019-03-22T08:11:56.174Z,16.41
2019-03-22T08:14:28.343Z,16.61
2019-03-22T08:17:00.456Z,16.78
2019-03-22T08:19:32.596Z,17.05
2019-03-22T08:22:04.737Z,17.50
2019-03-22T08:24:36.860Z,17.76
2019-03-22T08:27:08.895Z,17.97
2019-03-22T08:29:41.090Z,17.96
2019-03-22T08:32:13.222Z,17.98
2019-03-22T08:34:47.691Z,18.22
2019-03-22T08:37:19.135Z,18.49
2019-03-22T08:39:51.156Z,18.62
2019-03-22T08:42:23.301Z,18.75
2019-03-22T08:44:55.373Z,19.15
2019-03-22T08:47:33.979Z,19.70
2019-03-22T08:50:01.619Z,20.30
2019-03-22T08:52:33.770Z,20.41
2019-03-22T08:55:06.124Z,20.34
2019-03-22T08:57:38.236Z,20.29
2019-03-22T09:00:11.139Z,20.38
2019-03-22T09:02:43.267Z,20.06
2019-03-22T09:05:15.393Z,20.00
2019-03-22T09:07:47.543Z,19.77
2019-03-22T09:10:19.700Z,20.16
2019-03-22T09:12:51.735Z,20.82
2019-03-22T09:15:23.885Z,21.27
2019-03-22T09:17:55.983Z,21.52
2019-03-22T09:20:28.161Z,21.61
2019-03-22T09:23:00.179Z,21.66
2019-03-22T09:25:32.359Z,21.87
2019-03-22T09:28:04.496Z,22.11
2019-03-22T09:30:36.596Z,22.49
2019-03-22T09:33:08.725Z,22.99
2019-03-22T09:35:40.903Z,23.20
2019-03-22T09:38:13.589Z,23.15
2019-03-22T09:40:45.811Z,23.36
2019-03-22T09:43:17.991Z,23.84
2019-03-22T09:45:50.096Z,24.04
2019-03-22T09:48:22.216Z,24.36
2019-03-22T09:50:54.323Z,24.73
2019-03-22T09:53:26.524Z,25.01
2019-03-22T09:55:58.635Z,25.01
2019-03-22T09:58:30.794Z,24.33
2019-03-22T10:01:02.977Z,24.13
2019-03-22T10:03:35.233Z,24.43
2019-03-22T10:06:07.398Z,24.35
2019-03-22T10:08:39.567Z,24.41
2019-03-22T10:11:11.723Z,24.54
2019-03-22T10:13:43.942Z,24.75
2019-03-22T10:16:16.130Z,24.11
2019-03-22T10:18:48.170Z,24.10
2019-03-22T10:21:22.690Z,24.48
2019-03-22T10:23:54.201Z,25.09
2019-03-22T10:26:26.396Z,25.31
2019-03-22T10:28:58.523Z,25.52
2019-03-22T10:31:37.187Z,25.69
2019-03-22T10:34:04.520Z,25.76
2019-03-22T10:36:36.617Z,25.94
2019-03-22T10:39:10.967Z,26.09
2019-03-22T10:41:43.169Z,26.14
2019-03-22T10:44:15.361Z,25.75
2019-03-22T10:46:47.524Z,25.88
2019-03-22T10:49:19.650Z,25.72
2019-03-22T10:51:57.757Z,25.75
2019-03-22T10:54:25.641Z,25.90
2019-03-22T10:56:57.634Z,25.08
2019-03-22T10:59:29.827Z,25.06
2019-03-22T11:02:03.697Z,25.49
2019-03-22T11:04:35.903Z,26.05
2019-03-22T11:07:07.996Z,26.46
2019-03-22T11:09:40.210Z,25.90
2019-03-22T11:12:12.737Z,25.90
2019-03-22T11:14:45.761Z,26.00
2019-03-22T11:17:18.084Z,26.13
2019-03-22T11:19:50.200Z,26.74
2019-03-22T11:22:22.362Z,27.19
2019-03-22T11:24:54.531Z,27.33
2019-03-22T11:27:26.655Z,27.42
2019-03-22T11:29:58.828Z,27.41
2019-03-22T11:32:30.966Z,27.69
2019-03-22T11:35:03.139Z,27.71
2019-03-22T11:37:35.541Z,27.50
2019-03-22T11:40:10.844Z,27.25
2019-03-22T11:42:42.899Z,26.79
2019-03-22T11:45:18.144Z,27.00
2019-03-22T11:47:50.308Z,26.37
2019-03-22T11:50:22.433Z,26.37
2019-03-22T11:52:54.618Z,26.31
2019-03-22T11:55:26.794Z,26.42
2019-03-22T11:58:02.410Z,26.86
2019-03-22T12:00:34.540Z,26.55
2019-03-22T12:03:06.800Z,26.53
2019-03-22T12:05:40.571Z,26.82
2019-03-22T12:08:12.827Z,26.76
2019-03-22T12:10:44.854Z,26.90
2019-03-22T12:13:17.028Z,26.37
2019-03-22T12:15:49.207Z,26.13
2019-03-22T12:18:24.592Z,25.77
2019-03-22T12:20:56.767Z,25.29
2019-03-22T12:23:28.878Z,25.92
2019-03-22T12:26:01.000Z,25.98
2019-03-22T12:28:33.140Z,26.44
2019-03-22T12:31:05.253Z,27.06
2019-03-22T12:33:37.399Z,26.91
2019-03-22T12:36:09.491Z,27.31
2019-03-22T12:38:41.583Z,27.71
2019-03-22T12:41:14.827Z,27.10
2019-03-22T12:43:46.931Z,26.55
2019-03-22T12:46:19.097Z,25.93
2019-03-22T12:48:51.218Z,25.36
2019-03-22T12:51:23.326Z,25.48
2019-03-22T12:53:55.524Z,25.69
2019-03-22T12:56:28.705Z,26.45
2019-03-22T12:59:00.809Z,26.80
2019-03-22T13:01:32.857Z,26.60
2019-03-22T13:04:04.998Z,26.54
2019-03-22T13:06:37.257Z,25.97
2019-03-22T13:09:10.851Z,25.57
2019-03-22T13:11:42.973Z,25.15
2019-03-22T13:14:15.127Z,25.37
2019-03-22T13:16:47.260Z,25.38
2019-03-22T13:19:19.418Z,25.17
2019-03-22T13:21:51.512Z,25.41
2019-03-22T13:24:23.916Z,25.45
2019-03-22T13:26:56.046Z,25.20
2019-03-22T13:29:28.201Z,25.13
2019-03-22T13:32:00.337Z,25.39
2019-03-22T13:34:32.500Z,25.12
2019-03-22T13:37:04.678Z,24.87
2019-03-22T13:39:36.798Z,25.13
2019-03-22T13:42:08.970Z,25.65
2019-03-22T13:44:41.079Z,25.60
2019-03-22T13:47:13.258Z,25.00
2019-03-22T13:49:45.388Z,24.54
2019-03-22T13:52:17.643Z,24.62
2019-03-22T13:54:49.739Z,24.65
2019-03-22T13:57:24.085Z,24.72
2019-03-22T13:59:56.201Z,25.19
2019-03-22T14:02:28.410Z,25.07
2019-03-22T14:05:00.632Z,24.93
2019-03-22T14:07:32.646Z,25.12
2019-03-22T14:10:05.036Z,25.35
2019-03-22T14:12:38.172Z,25.72
2019-03-22T14:15:10.578Z,25.51
2019-03-22T14:17:42.701Z,24.91
2019-03-22T14:20:14.836Z,25.08
2019-03-22T14:22:47.002Z,25.14
2019-03-22T14:25:19.146Z,25.73
2019-03-22T14:27:51.301Z,25.36
2019-03-22T14:30:23.545Z,24.87
2019-03-22T14:32:55.833Z,24.82
2019-03-22T14:35:28.603Z,24.91
2019-03-22T14:38:00.720Z,24.91
2019-03-22T14:40:32.888Z,25.08
2019-03-22T14:43:05.001Z,25.57
2019-03-22T14:45:37.171Z,25.60
2019-03-22T14:48:09.325Z,25.73
2019-03-22T14:50:41.820Z,25.69
2019-03-22T14:53:14.003Z,25.86
2019-03-22T14:55:46.228Z,26.01
2019-03-22T14:58:18.371Z,26.05
2019-03-22T15:00:50.479Z,26.36
2019-03-22T15:03:26.708Z,26.47
2019-03-22T15:05:58.950Z,26.26
2019-03-22T15:08:31.030Z,25.84
2019-03-22T15:11:03.149Z,25.24
2019-03-22T15:13:38.727Z,24.95
2019-03-22T15:16:34.083Z,25.17
2019-03-22T15:19:16.875Z,25.74
2019-03-22T15:22:09.791Z,26.06
2019-03-22T15:25:00.702Z,26.05
2019-03-22T15:27:51.751Z,26.01
2019-03-22T15:30:55.225Z,26.06
2019-03-22T15:33:46.367Z,25.99
2019-03-22T15:36:42.673Z,25.31
2019-03-22T15:39:44.371Z,24.75
2019-03-22T15:42:16.093Z,24.66
2019-03-22T15:44:48.236Z,24.46
2019-03-22T15:47:20.787Z,24.28
2019-03-22T15:49:52.911Z,24.37
2019-03-22T15:52:25.156Z,24.67
2019-03-22T15:54:57.200Z,24.60
2019-03-22T15:57:29.327Z,24.57
2019-03-22T16:00:01.447Z,24.38
2019-03-22T16:02:33.554Z,24.49
2019-03-22T16:05:06.665Z,24.31
2019-03-22T16:07:38.794Z,24.16
2019-03-22T16:10:11.178Z,24.05
2019-03-22T16:12:43.290Z,23.71
2019-03-22T16:15:15.775Z,23.70
2019-03-22T16:17:47.934Z,23.66
2019-03-22T16:20:20.273Z,23.53
2019-03-22T16:22:52.377Z,23.53
2019-03-22T16:25:24.531Z,23.56
2019-03-22T16:28:01.327Z,23.56
2019-03-22T16:30:33.459Z,23.54
2019-03-22T16:33:05.582Z,23.24
2019-03-22T16:35:38.630Z,23.08
2019-03-22T16:38:10.740Z,22.86
2019-03-22T16:40:42.827Z,22.75
2019-03-22T16:43:15.031Z,22.76
2019-03-22T16:45:47.120Z,22.45
2019-03-22T16:48:19.289Z,22.20
2019-03-22T16:50:51.430Z,22.24
2019-03-22T16:53:23.565Z,22.33
2019-03-22T16:55:55.740Z,22.19
2019-03-22T16:58:28.153Z,22.09
2019-03-22T17:01:00.309Z,21.97
2019-03-22T17:03:32.477Z,21.85
2019-03-22T17:06:04.623Z,21.79
2019-03-22T17:08:36.756Z,21.61
2019-03-22T17:11:08.902Z,21.44
2019-03-22T17:13:40.931Z,21.34
2019-03-22T17:16:13.187Z,21.28
2019-03-22T17:18:45.355Z,21.20
2019-03-22T17:21:17.551Z,21.07
2019-03-22T17:23:49.643Z,21.06
2019-03-22T17:26:21.766Z,20.94
2019-03-22T17:28:53.786Z,20.80
2019-03-22T17:31:25.934Z,20.76
2019-03-22T17:33:58.073Z,20.59
2019-03-22T17:36:30.286Z,20.44
2019-03-22T17:39:02.396Z,20.32
2019-03-22T17:41:34.867Z,20.30
2019-03-22T17:44:07.321Z,20.19
2019-03-22T17:46:39.439Z,20.04
2019-03-22T17:49:11.543Z,19.98
2019-03-22T17:51:43.664Z,19.81
2019-03-22T17:54:15.760Z,19.80
2019-03-22T17:56:47.789Z,19.69
2019-03-22T17:59:20.192Z,19.58
2019-03-22T18:01:52.396Z,19.46
2019-03-22T18:04:24.614Z,19.46
2019-03-22T18:06:56.723Z,19.27
2019-03-22T18:09:28.874Z,19.22
2019-03-22T18:12:01.038Z,19.18
2019-03-22T18:14:33.175Z,19.14
2019-03-22T18:17:05.279Z,18.97
2019-03-22T18:19:37.346Z,18.91
2019-03-22T18:22:09.495Z,18.92
2019-03-22T18:24:41.653Z,18.85
2019-03-22T18:27:13.765Z,18.85
2019-03-22T18:29:45.913Z,18.76
2019-03-22T18:32:18.078Z,18.66
2019-03-22T18:34:50.188Z,18.62
2019-03-22T18:37:24.782Z,18.53
2019-03-22T18:39:56.893Z,18.48
2019-03-22T18:42:29.111Z,18.41
2019-03-22T18:45:01.126Z,18.41
2019-03-22T18:47:33.293Z,18.28
2019-03-22T18:50:06.520Z,18.27
2019-03-22T18:52:41.113Z,18.28
2019-03-22T18:55:13.737Z,18.15
2019-03-22T18:57:45.851Z,18.10
2019-03-22T19:00:18.277Z,17.98
2019-03-22T19:02:50.433Z,17.90
2019-03-22T19:05:25.607Z,17.92
2019-03-22T19:07:57.837Z,17.88
2019-03-22T19:10:29.995Z,17.88
2019-03-22T19:13:02.026Z,17.84
2019-03-22T19:15:34.074Z,17.76
2019-03-22T19:18:06.175Z,17.64
2019-03-22T19:20:38.367Z,17.58
2019-03-22T19:23:10.547Z,17.60
2019-03-22T19:25:42.831Z,17.50
2019-03-22T19:28:14.995Z,17.45
2019-03-22T19:30:47.225Z,17.31
2019-03-22T19:33:19.400Z,17.22
2019-03-22T19:35:51.684Z,17.21
2019-03-22T19:38:23.904Z,17.24
2019-03-22T19:40:56.038Z,17.19
2019-03-22T19:43:28.142Z,17.08
2019-03-22T19:46:00.314Z,17.13
2019-03-22T19:48:32.455Z,16.99
2019-03-22T19:51:04.617Z,16.94
2019-03-22T19:53:36.757Z,16.91
2019-03-22T19:56:08.794Z,16.92
2019-03-22T19:58:41.052Z,16.77
2019-03-22T20:01:13.045Z,16.86
2019-03-22T20:03:45.236Z,16.80
2019-03-22T20:06:17.370Z,16.83
2019-03-22T20:08:49.473Z,16.80
2019-03-22T20:11:21.705Z,16.71
2019-03-22T20:13:53.850Z,16.66
2019-03-22T20:16:26.020Z,16.64
2019-03-22T20:18:58.143Z,16.53
2019-03-22T20:21:30.353Z,16.45
2019-03-22T20:24:02.518Z,16.44
2019-03-22T20:26:34.664Z,16.35
2019-03-22T20:29:06.810Z,16.39
2019-03-22T20:31:38.929Z,16.41
2019-03-22T20:34:11.073Z,16.35
2019-03-22T20:36:43.818Z,16.26
2019-03-22T20:39:19.493Z,16.24
2019-03-22T20:41:51.706Z,16.16
2019-03-22T20:44:33.570Z,16.14
2019-03-22T20:46:57.610Z,16.13
2019-03-22T20:49:29.760Z,16.06
2019-03-22T20:52:01.929Z,16.05
2019-03-22T20:54:34.072Z,16.00
2019-03-22T20:57:06.226Z,15.96
2019-03-22T20:59:38.344Z,15.92
2019-03-22T21:02:12.786Z,15.84
2019-03-22T21:04:44.931Z,15.79
2019-03-22T21:07:17.090Z,15.70
2019-03-22T21:09:51.374Z,15.71
2019-03-22T21:12:23.520Z,15.74
2019-03-22T21:14:55.659Z,15.63
2019-03-22T21:17:27.762Z,15.57
2019-03-22T21:19:59.904Z,15.63
2019-03-22T21:22:32.041Z,15.54
2019-03-22T21:25:04.417Z,15.51
2019-03-22T21:27:36.561Z,15.50
2019-03-22T21:30:08.983Z,15.53
2019-03-22T21:32:45.513Z,15.48
2019-03-22T21:35:22.330Z,15.47
2019-03-22T21:37:48.940Z,15.41
2019-03-22T21:40:21.085Z,15.47
2019-03-22T21:42:53.425Z,15.47
2019-03-22T21:45:25.574Z,15.48
2019-03-22T21:47:58.634Z,15.38
2019-03-22T21:50:30.758Z,15.37
2019-03-22T21:53:02.927Z,15.40
2019-03-22T21:55:36.038Z,15.41
2019-03-22T21:58:08.146Z,15.27
2019-03-22T22:00:40.307Z,15.21
2019-03-22T22:03:14.487Z,15.24
2019-03-22T22:05:48.068Z,15.30
2019-03-22T22:08:20.390Z,15.31
2019-03-22T22:10:59.564Z,15.25
2019-03-22T22:13:26.306Z,15.20
2019-03-22T22:15:58.381Z,15.14
2019-03-22T22:18:30.485Z,15.11
2019-03-22T22:21:02.625Z,14.96
2019-03-22T22:23:34.731Z,14.83
2019-03-22T22:26:06.872Z,14.70
2019-03-22T22:28:38.974Z,14.52
2019-03-22T22:31:11.513Z,14.39
2019-03-22T22:33:43.585Z,14.24
2019-03-22T22:36:15.690Z,14.11
2019-03-22T22:38:47.831Z,13.99
2019-03-22T22:41:19.979Z,13.88
2019-03-22T22:43:52.104Z,13.80
2019-03-22T22:46:24.242Z,13.71
2019-03-22T22:48:56.302Z,13.65
2019-03-22T22:51:28.441Z,13.60
2019-03-22T22:54:00.561Z,13.57
2019-03-22T22:56:32.731Z,13.49
2019-03-22T22:59:04.867Z,13.44
2019-03-22T23:01:36.896Z,13.39
2019-03-22T23:04:08.998Z,13.31
2019-03-22T23:06:41.134Z,13.22
2019-03-22T23:09:13.176Z,13.13
2019-03-22T23:11:45.235Z,13.09
2019-03-22T23:14:17.377Z,13.05
2019-03-22T23:16:49.480Z,13.00
2019-03-22T23:19:21.636Z,12.99
2019-03-22T23:21:53.792Z,12.96
2019-03-22T23:24:25.928Z,12.94
2019-03-22T23:26:58.053Z,12.87
2019-03-22T23:29:30.186Z,12.82
2019-03-22T23:32:02.297Z,12.77
2019-03-22T23:34:34.411Z,12.74
2019-03-22T23:37:07.313Z,12.69
2019-03-22T23:39:39.472Z,12.67
2019-03-22T23:42:11.646Z,12.68
2019-03-22T23:44:43.778Z,12.65
2019-03-22T23:47:15.892Z,12.66
2019-03-22T23:49:48.045Z,12.67
2019-03-22T23:52:20.174Z,12.66
2019-03-22T23:54:52.373Z,12.62
2019-03-22T23:57:24.508Z,12.58
2019-03-22T23:59:56.647Z,12.61
